Погода:Россия/Саратовская область/Балаково/Источники/OpenWeatherMap/1/+0 UTC/1 января 00:00:00: различия между версиями

Материал из Онлайн справочника
Перейти к навигации Перейти к поиску

(Новая страница: «{{Погода/Панель перехода}} {{Перевод от Сubewriter}} {{Myagkij-редактор}} =Данные<ref>[https://openweathermap.org/his…»)
(нет различий)

Версия 15:29, 8 февраля 2020

Перевод: Максим Кузьмин (Cubewriter) Контакты:</br>* Skype: cubewriter</br>* E-mail: cubewriter@gmail.com</br>* Максим Кузьмин на freelance.ru
Проверка/Оформление/Редактирование: Мякишев Е.А.


Данные[1]

ВремяТемператураЭто свойство относится к числу специальных свойств данного вики-сайта.Максимальная температура на данный моментМинимальная температура на данный моментСкорость ветраПасмурностьВлажностьАтмосферное давление относительно уровня моряМетеорологическое направление ветраОписание погодного условия
2 сентября 2760144 12:00:00-1,96 °C271,19 K <br />28,472 °F <br />488,142 °R <br />-1,96 °C271,19 K <br />28,472 °F <br />488,142 °R <br />-1,96 °C271,19 K <br />28,472 °F <br />488,142 °R <br />9,2 м/с91 %81 %1001 гПа241 градус(градусов)Сплошная облачность: 85-100%
12 июля 2760154 12:00:00-2,03 °C271,12 K <br />28,346 °F <br />488,016 °R <br />-2,03 °C271,12 K <br />28,346 °F <br />488,016 °R <br />-2,03 °C271,12 K <br />28,346 °F <br />488,016 °R <br />9,09 м/с91 %80 %1002 гПа244 градус(градусов)Сплошная облачность: 85-100%
20 мая 2760164 12:00:00-2,87 °C270,28 K <br />26,834 °F <br />486,504 °R <br />-2,87 °C270,28 K <br />26,834 °F <br />486,504 °R <br />-2,87 °C270,28 K <br />26,834 °F <br />486,504 °R <br />8,92 м/с94 %77 %1003 гПа245 градус(градусов)Сплошная облачность: 85-100%
29 марта 2760174 12:00:00-3,05 °C270,1 K <br />26,51 °F <br />486,18 °R <br />-3,05 °C270,1 K <br />26,51 °F <br />486,18 °R <br />-3,05 °C270,1 K <br />26,51 °F <br />486,18 °R <br />8,62 м/с100 %76 %1003 гПа246 градус(градусов)Сплошная облачность: 85-100%
5 февраля 2760184 12:00:00-3,13 °C270,02 K <br />26,366 °F <br />486,036 °R <br />-3,13 °C270,02 K <br />26,366 °F <br />486,036 °R <br />-3,13 °C270,02 K <br />26,366 °F <br />486,036 °R <br />8,25 м/с100 %76 %1004 гПа245 градус(градусов)Сплошная облачность: 85-100%
14 декабря 2760193 12:00:00-3,99 °C269,16 K <br />24,818 °F <br />484,488 °R <br />-3,99 °C269,16 K <br />24,818 °F <br />484,488 °R <br />-3,99 °C269,16 K <br />24,818 °F <br />484,488 °R <br />8,04 м/с99 %77 %1006 гПа246 градус(градусов)Сплошная облачность: 85-100%
24 октября 2760203 12:00:00-4,15 °C269 K <br />24,53 °F <br />484,2 °R <br />-4,15 °C269 K <br />24,53 °F <br />484,2 °R <br />-4,15 °C269 K <br />24,53 °F <br />484,2 °R <br />7,77 м/с100 %77 %1007 гПа248 градус(градусов)Сплошная облачность: 85-100%
1 сентября 2760213 12:00:00-4,27 °C268,88 K <br />24,314 °F <br />483,984 °R <br />-4,27 °C268,88 K <br />24,314 °F <br />483,984 °R <br />-4,27 °C268,88 K <br />24,314 °F <br />483,984 °R <br />7,74 м/с99 %77 %1007 гПа250 градус(градусов)Сплошная облачность: 85-100%
11 июля 2760223 12:00:00-4,98 °C268,17 K <br />23,036 °F <br />482,706 °R <br />-4,98 °C268,17 K <br />23,036 °F <br />482,706 °R <br />-4,98 °C268,17 K <br />23,036 °F <br />482,706 °R <br />7,57 м/с98 %75 %1008 гПа252 градус(градусов)Сплошная облачность: 85-100%
19 мая 2760233 12:00:00-5,16 °C267,99 K <br />22,712 °F <br />482,382 °R <br />-5,16 °C267,99 K <br />22,712 °F <br />482,382 °R <br />-5,16 °C267,99 K <br />22,712 °F <br />482,382 °R <br />7,11 м/с99 %75 %1009 гПа250 градус(градусов)Сплошная облачность: 85-100%
28 марта 2760243 12:00:00-5,85 °C267,3 K <br />21,47 °F <br />481,14 °R <br />-5,85 °C267,3 K <br />21,47 °F <br />481,14 °R <br />-5,85 °C267,3 K <br />21,47 °F <br />481,14 °R <br />6,75 м/с99 %77 %1009 гПа248 градус(градусов)Сплошная облачность: 85-100%
3 февраля 2760253 12:00:00-5,82 °C267,33 K <br />21,524 °F <br />481,194 °R <br />-5,82 °C267,33 K <br />21,524 °F <br />481,194 °R <br />-5,82 °C267,33 K <br />21,524 °F <br />481,194 °R <br />6,04 м/с100 %77 %1010 гПа252 градус(градусов)Сплошная облачность: 85-100%
13 декабря 2760262 12:00:00-5,97 °C267,18 K <br />21,254 °F <br />480,924 °R <br />-5,97 °C267,18 K <br />21,254 °F <br />480,924 °R <br />-5,97 °C267,18 K <br />21,254 °F <br />480,924 °R <br />5,22 м/с100 %76 %1010 гПа251 градус(градусов)Сплошная облачность: 85-100%
21 октября 2760272 12:00:00-6,34 °C266,81 K <br />20,588 °F <br />480,258 °R <br />-6,34 °C266,81 K <br />20,588 °F <br />480,258 °R <br />-6,34 °C266,81 K <br />20,588 °F <br />480,258 °R <br />4,61 м/с100 %76 %1011 гПа249 градус(градусов)Сплошная облачность: 85-100%
30 августа 2760282 12:00:00-7,95 °C265,2 K <br />17,69 °F <br />477,36 °R <br />-7,95 °C265,2 K <br />17,69 °F <br />477,36 °R <br />-7,95 °C265,2 K <br />17,69 °F <br />477,36 °R <br />4,44 м/с100 %78 %1011 гПа250 градус(градусов)Сплошная облачность: 85-100%
8 июля 2760292 12:00:00-8,21 °C264,94 K <br />17,222 °F <br />476,892 °R <br />-8,21 °C264,94 K <br />17,222 °F <br />476,892 °R <br />-8,21 °C264,94 K <br />17,222 °F <br />476,892 °R <br />4,05 м/с100 %79 %1012 гПа254 градус(градусов)Сплошная облачность: 85-100%
18 мая 2760302 12:00:00-8,32 °C264,83 K <br />17,024 °F <br />476,694 °R <br />-8,32 °C264,83 K <br />17,024 °F <br />476,694 °R <br />-8,32 °C264,83 K <br />17,024 °F <br />476,694 °R <br />3,44 м/с98 %79 %1012 гПа257 градус(градусов)Сплошная облачность: 85-100%
26 марта 2760312 12:00:00-9,61 °C263,54 K <br />14,702 °F <br />474,372 °R <br />-9,61 °C263,54 K <br />14,702 °F <br />474,372 °R <br />-9,61 °C263,54 K <br />14,702 °F <br />474,372 °R <br />2,93 м/с96 %80 %1013 гПа259 градус(градусов)Сплошная облачность: 85-100%
2 февраля 2760322 12:00:00-9,41 °C263,74 K <br />15,062 °F <br />474,732 °R <br />-9,41 °C263,74 K <br />15,062 °F <br />474,732 °R <br />-9,41 °C263,74 K <br />15,062 °F <br />474,732 °R <br />2,69 м/с92 %79 %1014 гПа254 градус(градусов)Сплошная облачность: 85-100%
12 декабря 2760331 12:00:00-9,23 °C263,92 K <br />15,386 °F <br />475,056 °R <br />-9,23 °C263,92 K <br />15,386 °F <br />475,056 °R <br />-9,23 °C263,92 K <br />15,386 °F <br />475,056 °R <br />2,49 м/с95 %79 %1014 гПа249 градус(градусов)Сплошная облачность: 85-100%
20 октября 2760341 12:00:00-9,67 °C263,48 K <br />14,594 °F <br />474,264 °R <br />-9,67 °C263,48 K <br />14,594 °F <br />474,264 °R <br />-9,67 °C263,48 K <br />14,594 °F <br />474,264 °R <br />2,43 м/с97 %79 %1015 гПа245 градус(градусов)Сплошная облачность: 85-100%
29 августа 2760351 12:00:00-10,01 °C263,14 K <br />13,982 °F <br />473,652 °R <br />-10,01 °C263,14 K <br />13,982 °F <br />473,652 °R <br />-10,01 °C263,14 K <br />13,982 °F <br />473,652 °R <br />2,51 м/с100 %80 %1015 гПа244 градус(градусов)Сплошная облачность: 85-100%
7 июля 2760361 12:00:00-11,58 °C261,57 K <br />11,156 °F <br />470,826 °R <br />-11,58 °C261,57 K <br />11,156 °F <br />470,826 °R <br />-11,58 °C261,57 K <br />11,156 °F <br />470,826 °R <br />2,42 м/с98 %82 %1015 гПа254 градус(градусов)Сплошная облачность: 85-100%
16 мая 2760371 12:00:00-11,65 °C261,5 K <br />11,03 °F <br />470,7 °R <br />-11,65 °C261,5 K <br />11,03 °F <br />470,7 °R <br />-11,65 °C261,5 K <br />11,03 °F <br />470,7 °R <br />2,06 м/с100 %82 %1016 гПа254 градус(градусов)Сплошная облачность: 85-100%
22 апреля 2846487 12:00:00-11,09 °C262,06 K <br />12,038 °F <br />471,708 °R <br />-11,09 °C262,06 K <br />12,038 °F <br />471,708 °R <br />-11,09 °C262,06 K <br />12,038 °F <br />471,708 °R <br />7,68 м/с97 %75 %1004 гПа276 градус(градусов)Сплошная облачность: 85-100%
28 февраля 2846497 12:00:00-12,16 °C260,99 K <br />10,112 °F <br />469,782 °R <br />-12,16 °C260,99 K <br />10,112 °F <br />469,782 °R <br />-12,16 °C260,99 K <br />10,112 °F <br />469,782 °R <br />7,27 м/с48 %73 %1006 гПа277 градус(градусов)Незначительная облачность: 25-50%
8 января 2846507 12:00:00-16,3 °C256,85 K <br />2,66 °F <br />462,33 °R <br />-16,3 °C256,85 K <br />2,66 °F <br />462,33 °R <br />-16,3 °C256,85 K <br />2,66 °F <br />462,33 °R <br />6,53 м/с18 %72 %1007 гПа275 градус(градусов)Низкая облачность: 11-25%
16 ноября 2846516 12:00:00-16,08 °C257,07 K <br />3,056 °F <br />462,726 °R <br />-16,08 °C257,07 K <br />3,056 °F <br />462,726 °R <br />-16,08 °C257,07 K <br />3,056 °F <br />462,726 °R <br />6 м/с6 %71 %1008 гПа275 градус(градусов)Ясное небо
25 сентября 2846526 12:00:00-15,9 °C257,25 K <br />3,38 °F <br />463,05 °R <br />-15,9 °C257,25 K <br />3,38 °F <br />463,05 °R <br />-15,9 °C257,25 K <br />3,38 °F <br />463,05 °R <br />5,48 м/с8 %73 %1008 гПа274 градус(градусов)Ясное небо
3 августа 2846536 12:00:00-18,03 °C255,12 K <br />-0,454 °F <br />459,216 °R <br />-18,03 °C255,12 K <br />-0,454 °F <br />459,216 °R <br />-18,03 °C255,12 K <br />-0,454 °F <br />459,216 °R <br />5,07 м/с20 %70 %1009 гПа275 градус(градусов)Низкая облачность: 11-25%
12 июня 2846546 12:00:00-17,68 °C255,47 K <br />0,176 °F <br />459,846 °R <br />-17,68 °C255,47 K <br />0,176 °F <br />459,846 °R <br />-17,68 °C255,47 K <br />0,176 °F <br />459,846 °R <br />4,96 м/с49 %71 %1010 гПа274 градус(градусов)Незначительная облачность: 25-50%
20 апреля 2846556 12:00:00-17,32 °C255,83 K <br />0,824 °F <br />460,494 °R <br />-17,32 °C255,83 K <br />0,824 °F <br />460,494 °R <br />-17,32 °C255,83 K <br />0,824 °F <br />460,494 °R <br />5,05 м/с67 %71 %1011 гПа273 градус(градусов)Повышенная облачность: 51-84%
27 февраля 2846566 12:00:00-17,16 °C255,99 K <br />1,112 °F <br />460,782 °R <br />-17,16 °C255,99 K <br />1,112 °F <br />460,782 °R <br />-17,16 °C255,99 K <br />1,112 °F <br />460,782 °R <br />4,83 м/с73 %68 %1011 гПа268 градус(градусов)Повышенная облачность: 51-84%
6 января 2846576 12:00:00-17,31 °C255,84 K <br />0,842 °F <br />460,512 °R <br />-17,31 °C255,84 K <br />0,842 °F <br />460,512 °R <br />-17,31 °C255,84 K <br />0,842 °F <br />460,512 °R <br />5,49 м/с64 %68 %1012 гПа270 градус(градусов)Повышенная облачность: 51-84%
14 ноября 2846585 12:00:00-17,57 °C255,58 K <br />0,374 °F <br />460,044 °R <br />-17,57 °C255,58 K <br />0,374 °F <br />460,044 °R <br />-17,57 °C255,58 K <br />0,374 °F <br />460,044 °R <br />4,93 м/с14 %68 %1012 гПа263 градус(градусов)Низкая облачность: 11-25%
23 сентября 2846595 12:00:00-17,72 °C255,43 K <br />0,104 °F <br />459,774 °R <br />-17,72 °C255,43 K <br />0,104 °F <br />459,774 °R <br />-17,72 °C255,43 K <br />0,104 °F <br />459,774 °R <br />5,01 м/с6 %70 %1013 гПа264 градус(градусов)Ясное небо
2 августа 2846605 12:00:00-17,94 °C255,21 K <br />-0,292 °F <br />459,378 °R <br />-17,94 °C255,21 K <br />-0,292 °F <br />459,378 °R <br />-17,94 °C255,21 K <br />-0,292 °F <br />459,378 °R <br />4,81 м/с0 %71 %1014 гПа263 градус(градусов)Ясное небо
11 июня 2846615 12:00:00-17,97 °C255,18 K <br />-0,346 °F <br />459,324 °R <br />-17,97 °C255,18 K <br />-0,346 °F <br />459,324 °R <br />-17,97 °C255,18 K <br />-0,346 °F <br />459,324 °R <br />4,89 м/с0 %71 %1015 гПа264 градус(градусов)Ясное небо
19 апреля 2846625 12:00:00-18,8 °C254,35 K <br />-1,84 °F <br />457,83 °R <br />-18,8 °C254,35 K <br />-1,84 °F <br />457,83 °R <br />-18,8 °C254,35 K <br />-1,84 °F <br />457,83 °R <br />5 м/с0 %73 %1016 гПа264 градус(градусов)Ясное небо
26 февраля 2846635 12:00:00-18,45 °C254,7 K <br />-1,21 °F <br />458,46 °R <br />-18,45 °C254,7 K <br />-1,21 °F <br />458,46 °R <br />-18,45 °C254,7 K <br />-1,21 °F <br />458,46 °R <br />5,22 м/с0 %74 %1016 гПа264 градус(градусов)Ясное небо
4 января 2846645 12:00:00-18,18 °C254,97 K <br />-0,724 °F <br />458,946 °R <br />-18,18 °C254,97 K <br />-0,724 °F <br />458,946 °R <br />-18,18 °C254,97 K <br />-0,724 °F <br />458,946 °R <br />5,22 м/с0 %74 %1016 гПа263 градус(градусов)Ясное небо
13 ноября 2846654 12:00:00-18,56 °C254,59 K <br />-1,408 °F <br />458,262 °R <br />-18,56 °C254,59 K <br />-1,408 °F <br />458,262 °R <br />-18,56 °C254,59 K <br />-1,408 °F <br />458,262 °R <br />5,03 м/с0 %75 %1017 гПа259 градус(градусов)Ясное небо
21 сентября 2846664 12:00:00-18,69 °C254,46 K <br />-1,642 °F <br />458,028 °R <br />-18,69 °C254,46 K <br />-1,642 °F <br />458,028 °R <br />-18,69 °C254,46 K <br />-1,642 °F <br />458,028 °R <br />4,61 м/с0 %74 %1017 гПа255 градус(градусов)Ясное небо
31 июля 2846674 12:00:00-18,99 °C254,16 K <br />-2,182 °F <br />457,488 °R <br />-18,99 °C254,16 K <br />-2,182 °F <br />457,488 °R <br />-18,99 °C254,16 K <br />-2,182 °F <br />457,488 °R <br />4,4 м/с0 %74 %1018 гПа246 градус(градусов)Ясное небо
8 июня 2846684 12:00:00-18,82 °C254,33 K <br />-1,876 °F <br />457,794 °R <br />-18,82 °C254,33 K <br />-1,876 °F <br />457,794 °R <br />-18,82 °C254,33 K <br />-1,876 °F <br />457,794 °R <br />4,41 м/с0 %75 %1018 гПа239 градус(градусов)Ясное небо
17 апреля 2846694 12:00:00-18,67 °C254,48 K <br />-1,606 °F <br />458,064 °R <br />-18,67 °C254,48 K <br />-1,606 °F <br />458,064 °R <br />-18,67 °C254,48 K <br />-1,606 °F <br />458,064 °R <br />4,63 м/с0 %74 %1018 гПа233 градус(градусов)Ясное небо
25 февраля 2846704 12:00:00-18,32 °C254,83 K <br />-0,976 °F <br />458,694 °R <br />-18,32 °C254,83 K <br />-0,976 °F <br />458,694 °R <br />-18,32 °C254,83 K <br />-0,976 °F <br />458,694 °R <br />5,05 м/с5 %75 %1017 гПа232 градус(градусов)Ясное небо
3 января 2846714 12:00:00-18,18 °C254,97 K <br />-0,724 °F <br />458,946 °R <br />-18,18 °C254,97 K <br />-0,724 °F <br />458,946 °R <br />-18,18 °C254,97 K <br />-0,724 °F <br />458,946 °R <br />5,21 м/с4 %75 %1018 гПа231 градус(градусов)Ясное небо
10 декабря 2932829 12:00:00-6,73 °C266,42 K <br />19,886 °F <br />479,556 °R <br />-6,73 °C266,42 K <br />19,886 °F <br />479,556 °R <br />-6,73 °C266,42 K <br />19,886 °F <br />479,556 °R <br />2,83 м/с100 %96 %1033 гПа188 градус(градусов)Сплошная облачность: 85-100%
19 октября 2932839 12:00:00-6,76 °C266,39 K <br />19,832 °F <br />479,502 °R <br />-6,76 °C266,39 K <br />19,832 °F <br />479,502 °R <br />-6,76 °C266,39 K <br />19,832 °F <br />479,502 °R <br />2,8 м/с100 %96 %1032 гПа186 градус(градусов)Сплошная облачность: 85-100%
… следующие результаты

См.также

Внешние ссылки